Time;durP1;ratioP1;P1;durP2;ratioP2;P2;SDS_P1;SDS_P2;PMS_P1;PMS_P2;Temp;Humidity;BMP_temperature;BMP_pressure;BME280_temperature;BME280_humidity;BME280_pressure;Samples;Min_cycle;Max_cycle;Signal;HPM_P1;HPM_P2
2022/01/31 00:00:36;;;;;;;;;10.60;8.00;;;;;8.59;57.58;101724.59;5029935;28;46059;-60
2022/01/31 00:03:02;;;;;;;;;7.50;6.75;;;;;8.48;58.00;101705.81;5029773;28;45544;-59
2022/01/31 00:05:28;;;;;;;;;11.50;8.75;;;;;8.58;58.09;101708.38;5030027;28;45533;-57
2022/01/31 00:07:54;;;;;;;;;10.60;7.00;;;;;8.59;57.73;101699.13;5031352;28;45449;-58
2022/01/31 00:10:27;;;;;;;;;11.00;6.75;;;;;8.11;58.09;101612.38;5032354;28;45880;-56
2022/01/31 00:13:02;;;;;;;;;12.20;8.00;;;;;8.59;57.93;101694.50;5033480;28;45438;-58
2022/01/31 00:15:28;;;;;;;;;15.20;10.40;;;;;8.36;59.06;101658.78;5033588;28;45530;-58
2022/01/31 00:17:54;;;;;;;;;9.00;9.00;;;;;8.17;58.60;101619.03;5032443;28;45371;-58
2022/01/31 00:20:19;;;;;;;;;9.50;6.50;;;;;8.54;57.99;101659.47;5031479;28;46652;-60
2022/01/31 00:22:45;;;;;;;;;4.75;4.75;;;;;8.45;57.60;101641.34;5032079;28;45345;-58
2022/01/31 00:25:11;;;;;;;;;11.25;9.00;;;;;8.34;57.63;101625.31;5032576;28;45916;-58
2022/01/31 00:27:36;;;;;;;;;5.00;5.00;;;;;8.48;57.58;101657.41;5036301;28;45395;-53
2022/01/31 00:30:03;;;;;;;;;11.75;9.25;;;;;8.50;57.48;101655.31;5037036;28;45605;-51
2022/01/31 00:32:29;;;;;;;;;7.80;6.60;;;;;8.53;57.41;101655.03;5036921;28;45375;-51
2022/01/31 00:34:56;;;;;;;;;13.00;8.00;;;;;8.55;57.27;101646.66;5037182;28;45479;-50
2022/01/31 00:37:22;;;;;;;;;8.00;6.60;;;;;8.36;56.92;101623.22;5035913;28;45404;-51
2022/01/31 00:39:47;;;;;;;;;6.00;5.00;;;;;8.44;57.32;101631.44;5037483;28;45314;-51
2022/01/31 00:42:13;;;;;;;;;4.50;4.50;;;;;8.43;57.18;101629.69;5037351;28;45322;-52
2022/01/31 00:44:52;;;;;;;;;8.50;6.00;;;;;8.39;57.45;101626.47;5037413;28;45236;-51
2022/01/31 00:47:24;;;;;;;;;6.20;4.20;;;;;8.49;56.84;101637.22;5037385;28;45474;-53
2022/01/31 00:50:10;;;;;;;;;8.20;4.60;;;;;8.38;57.17;101632.97;5035742;28;45768;-52
2022/01/31 00:52:36;;;;;;;;;5.40;3.00;;;;;8.40;56.81;101651.97;5037414;28;45370;-54
2022/01/31 00:55:02;;;;;;;;;3.40;3.40;;;;;8.44;57.45;101650.59;5036088;28;45408;-53
2022/01/31 00:57:28;;;;;;;;;9.40;5.20;;;;;8.43;57.22;101634.34;5037628;28;45551;-51
2022/01/31 00:59:54;;;;;;;;;3.50;3.50;;;;;8.35;56.71;101611.47;5024259;28;46044;-52
2022/01/31 01:02:22;;;;;;;;;6.20;3.00;;;;;8.48;56.58;101629.19;5033027;28;45415;-51
2022/01/31 01:04:48;;;;;;;;;6.20;3.40;;;;;8.52;56.55;101611.41;5037655;28;45432;-52
2022/01/31 01:07:16;;;;;;;;;10.00;6.00;;;;;8.41;57.21;101593.47;5037516;28;45270;-50
2022/01/31 01:09:44;;;;;;;;;3.40;3.40;;;;;8.53;56.71;101602.16;5036188;28;47045;-52
2022/01/31 01:12:09;;;;;;;;;7.40;5.00;;;;;8.52;57.22;101598.59;5035904;28;45466;-53
2022/01/31 01:14:35;;;;;;;;;3.50;3.50;;;;;8.45;56.96;101594.84;5036862;28;45393;-53
2022/01/31 01:17:01;;;;;;;;;2.50;1.00;;;;;8.48;57.17;101596.38;5069192;28;46074;-52
2022/01/31 01:19:26;;;;;;;;;9.00;5.00;;;;;8.55;57.39;101580.97;5036774;28;45503;-56
2022/01/31 01:21:52;;;;;;;;;6.00;3.00;;;;;8.51;56.83;101583.22;5036880;28;45285;-52
2022/01/31 01:24:17;;;;;;;;;2.25;2.25;;;;;8.48;57.26;101569.84;5037150;28;45332;-53
2022/01/31 01:26:43;;;;;;;;;3.50;3.00;;;;;8.54;57.21;101560.97;5037388;28;45232;-54
2022/01/31 01:29:09;;;;;;;;;7.00;4.25;;;;;8.22;56.99;101516.28;5036707;28;45972;-55
2022/01/31 01:31:34;;;;;;;;;5.50;5.00;;;;;8.48;57.39;101550.69;5036916;28;45413;-51
2022/01/31 01:34:00;;;;;;;;;9.50;6.50;;;;;8.57;57.76;101540.59;5035525;28;45310;-52
2022/01/31 01:36:25;;;;;;;;;2.25;2.00;;;;;8.39;58.38;101524.41;5037216;28;45421;-53
2022/01/31 01:38:51;;;;;;;;;3.00;3.00;;;;;8.29;58.00;101505.47;5068531;28;47154;-53
2022/01/31 01:41:16;;;;;;;;;2.50;2.50;;;;;8.33;58.18;101497.78;5036783;28;45487;-50
2022/01/31 01:43:42;;;;;;;;;5.75;3.50;;;;;8.20;58.53;101493.72;5036773;28;45388;-53
2022/01/31 01:46:08;;;;;;;;;5.75;4.50;;;;;8.26;58.85;101489.41;5035702;28;45392;-52
2022/01/31 01:48:33;;;;;;;;;5.25;3.00;;;;;8.36;58.49;101519.28;5036388;28;45693;-51
2022/01/31 01:50:59;;;;;;;;;1.50;1.50;;;;;8.38;58.90;101498.94;5036261;28;45476;-49
2022/01/31 01:53:25;;;;;;;;;2.00;2.00;;;;;8.28;59.29;101501.06;5036572;28;45443;-50
2022/01/31 01:55:52;;;;;;;;;1.00;1.00;;;;;8.28;59.07;101496.41;5036731;28;45362;-53
2022/01/31 01:58:21;;;;;;;;;2.80;2.80;;;;;8.34;59.81;101502.22;5036082;28;46514;-51
2022/01/31 02:00:51;;;;;;;;;6.80;1.80;;;;;8.34;59.93;101510.41;5035491;28;46066;-51
2022/01/31 02:03:19;;;;;;;;;3.00;3.00;;;;;8.41;60.38;101516.88;5034910;28;45354;-52
2022/01/31 02:05:46;;;;;;;;;7.40;5.00;;;;;8.36;60.00;101491.94;5036895;28;45755;-53
2022/01/31 02:08:13;;;;;;;;;0.80;0.00;;;;;8.37;59.93;101501.84;5036020;28;46500;-53
2022/01/31 02:10:38;;;;;;;;;1.60;1.60;;;;;8.44;60.27;101494.66;5036342;28;45486;-52
2022/01/31 02:13:05;;;;;;;;;4.00;3.50;;;;;8.30;60.40;101478.97;5035200;28;45877;-49
2022/01/31 02:15:30;;;;;;;;;5.00;2.20;;;;;8.19;61.13;101447.41;5036106;28;45444;-55
2022/01/31 02:17:56;;;;;;;;;5.25;1.25;;;;;8.33;61.72;101487.66;5036056;28;45636;-49
2022/01/31 02:20:22;;;;;;;;;2.25;2.25;;;;;8.34;61.30;101485.78;5036321;28;45375;-49
2022/01/31 02:22:47;;;;;;;;;1.50;1.50;;;;;8.39;61.27;101464.22;5017501;28;45713;-55
2022/01/31 02:25:13;;;;;;;;;3.50;2.75;;;;;8.40;61.52;101466.75;5051499;28;45733;-55
2022/01/31 02:27:39;;;;;;;;;1.60;1.00;;;;;8.12;61.71;101433.63;5035593;28;46860;-54
2022/01/31 02:30:10;;;;;;;;;3.00;3.00;;;;;8.45;61.70;101463.50;5035068;28;45752;-49
2022/01/31 02:32:36;;;;;;;;;6.00;2.80;;;;;8.39;61.60;101464.22;5034599;28;45379;-48
2022/01/31 02:35:02;;;;;;;;;6.20;4.20;;;;;8.52;61.50;101437.16;5036287;28;45644;-52
2022/01/31 02:37:27;;;;;;;;;4.00;3.00;;;;;8.36;62.45;101404.41;5067575;28;45666;-51
2022/01/31 02:39:53;;;;;;;;;4.75;2.00;;;;;8.61;61.23;101446.19;5067590;28;45314;-50
2022/01/31 02:42:18;;;;;;;;;2.00;2.00;;;;;8.43;61.43;101410.84;5036181;28;45322;-49
2022/01/31 02:44:45;;;;;;;;;3.00;3.00;;;;;8.57;61.60;101433.88;5035324;28;45341;-51
2022/01/31 02:47:15;;;;;;;;;4.80;4.20;;;;;8.46;62.50;101435.13;5035737;28;45557;-51
2022/01/31 02:49:51;;;;;;;;;2.00;1.60;;;;;7.84;63.30;101328.31;5017424;28;45398;-52
2022/01/31 02:52:17;;;;;;;;;7.00;3.00;;;;;8.36;63.05;101401.66;5034098;28;45263;-52
2022/01/31 02:54:43;;;;;;;;;3.40;2.40;;;;;8.36;64.49;101404.41;5067609;28;45356;-52
2022/01/31 02:57:09;;;;;;;;;5.75;2.50;;;;;8.43;63.97;101399.06;5035094;28;45388;-54
2022/01/31 02:59:34;;;;;;;;;2.00;1.25;;;;;8.51;64.25;101419.06;5033811;28;45372;-52
2022/01/31 03:02:00;;;;;;;;;2.00;0.25;;;;;8.50;64.30;101387.19;5033794;28;45383;-51
2022/01/31 03:04:26;;;;;;;;;2.50;2.00;;;;;8.52;64.95;101398.88;5034078;28;45502;-52
2022/01/31 03:06:53;;;;;;;;;3.50;1.75;;;;;8.44;66.34;101390.69;5033601;28;45389;-51
2022/01/31 03:09:18;;;;;;;;;2.00;1.80;;;;;8.42;66.38;101376.31;5033751;28;45369;-54
2022/01/31 03:11:44;;;;;;;;;2.25;2.00;;;;;8.46;65.31;101383.13;5033930;28;45486;-52
2022/01/31 03:14:10;;;;;;;;;2.75;1.00;;;;;8.43;66.30;101350.66;5034893;28;45434;-53
2022/01/31 03:16:40;;;;;;;;;0.00;0.00;;;;;8.24;66.39;101339.19;5035034;28;45683;-50
2022/01/31 03:19:06;;;;;;;;;2.00;2.00;;;;;8.39;67.19;101339.22;5034625;28;45260;-52
2022/01/31 03:21:32;;;;;;;;;1.80;0.60;;;;;8.38;66.87;101369.53;5033893;28;45413;-50
2022/01/31 03:23:57;;;;;;;;;4.50;1.75;;;;;8.34;67.38;101359.97;5035001;28;45370;-51
2022/01/31 03:26:23;;;;;;;;;1.00;1.00;;;;;8.37;67.35;101346.78;5034747;28;45652;-49
2022/01/31 03:28:50;;;;;;;;;0.00;0.00;;;;;8.40;67.09;101359.25;5016779;28;45547;-50
2022/01/31 03:31:18;;;;;;;;;1.80;1.00;;;;;8.36;67.98;101352.44;5035012;28;45445;-51
2022/01/31 03:33:45;;;;;;;;;0.40;0.40;;;;;8.31;68.24;101369.38;5033684;28;45477;-51
2022/01/31 03:36:11;;;;;;;;;4.20;2.20;;;;;8.41;67.81;101369.16;5033357;28;45965;-51
2022/01/31 03:38:40;;;;;;;;;2.00;2.00;;;;;8.40;67.91;101332.72;5034794;28;45492;-52
2022/01/31 03:41:09;;;;;;;;;6.00;1.80;;;;;8.43;68.88;101344.34;5034546;28;45448;-53
2022/01/31 03:43:35;;;;;;;;;0.20;0.20;;;;;8.50;68.63;101359.00;5033747;28;45337;-53
2022/01/31 03:46:01;;;;;;;;;1.75;1.00;;;;;8.54;68.63;101341.22;5034578;28;45340;-52
2022/01/31 03:48:28;;;;;;;;;4.00;1.00;;;;;8.58;68.56;101330.75;5049952;28;45701;-52
2022/01/31 03:50:54;;;;;;;;;3.00;2.00;;;;;8.58;69.00;101328.84;5034661;28;45448;-52
2022/01/31 03:53:20;;;;;;;;;1.20;1.20;;;;;8.58;69.26;101338.97;5050759;28;45326;-52
2022/01/31 03:55:46;;;;;;;;;5.00;1.00;;;;;8.57;70.02;101316.22;5034899;28;45976;-54
2022/01/31 03:58:11;;;;;;;;;1.50;1.00;;;;;8.58;70.39;101322.56;5034659;28;45563;-50
2022/01/31 04:00:37;;;;;;;;;1.25;1.25;;;;;8.52;71.15;101314.03;5034733;28;45412;-49
2022/01/31 04:03:02;;;;;;;;;2.00;1.50;;;;;8.19;71.60;101255.97;5067338;28;45629;-50
2022/01/31 04:05:28;;;;;;;;;0.50;0.00;;;;;8.53;71.64;101312.13;5032989;28;45482;-50
2022/01/31 04:07:53;;;;;;;;;4.50;2.25;;;;;8.61;71.58;101346.81;5067110;28;45378;-53
2022/01/31 04:10:19;;;;;;;;;1.00;1.00;;;;;8.54;72.32;101328.38;5034650;28;45382;-57
2022/01/31 04:12:44;;;;;;;;;2.00;1.00;;;;;8.50;72.86;101339.84;5034909;28;45337;-49
2022/01/31 04:15:10;;;;;;;;;2.00;2.00;;;;;8.43;71.74;101331.50;5001538;28;45421;-54
2022/01/31 04:17:37;;;;;;;;;0.75;0.75;;;;;8.22;72.80;101296.66;5034785;28;45388;-52
2022/01/31 04:20:05;;;;;;;;;0.00;0.00;;;;;8.50;73.09;101340.69;5033553;28;45953;-49
2022/01/31 04:22:33;;;;;;;;;0.20;0.20;;;;;8.56;73.19;101335.56;5034502;28;45451;-53
2022/01/31 04:25:02;;;;;;;;;1.00;0.80;;;;;8.58;72.66;101341.72;5034272;28;45819;-51
2022/01/31 04:27:32;;;;;;;;;0.60;0.60;;;;;8.61;72.09;101349.53;5033015;28;45457;-51
2022/01/31 04:29:58;;;;;;;;;3.80;0.40;;;;;8.56;72.17;101346.50;5017315;28;45839;-49
2022/01/31 04:32:23;;;;;;;;;2.00;1.00;;;;;8.62;72.85;101349.34;5034332;28;45405;-48
2022/01/31 04:34:49;;;;;;;;;1.75;1.75;;;;;8.64;72.59;101346.44;5034086;28;46385;-50
2022/01/31 04:37:14;;;;;;;;;2.25;1.00;;;;;8.63;72.36;101350.19;5033104;28;45329;-55
2022/01/31 04:39:40;;;;;;;;;5.50;1.00;;;;;8.66;72.41;101355.31;5034241;28;45353;-50
2022/01/31 04:42:06;;;;;;;;;0.50;0.50;;;;;8.45;72.06;101321.25;5034536;28;45304;-51
2022/01/31 04:44:32;;;;;;;;;1.20;0.00;;;;;8.72;71.78;101373.75;5032420;28;46422;-51
2022/01/31 04:46:57;;;;;;;;;0.50;0.50;;;;;8.72;71.66;101361.94;5034274;28;45523;-50
2022/01/31 04:49:23;;;;;;;;;1.50;1.50;;;;;8.63;72.61;101341.97;5033988;28;45381;-53
2022/01/31 04:51:49;;;;;;;;;3.25;0.75;;;;;8.70;72.35;101350.31;5033578;28;45259;-53
2022/01/31 04:54:15;;;;;;;;;5.00;1.75;;;;;8.73;72.43;101345.31;5036410;28;45482;-49
2022/01/31 04:56:42;;;;;;;;;2.75;1.75;;;;;8.74;72.31;101321.53;5037195;28;45526;-51
2022/01/31 04:59:08;;;;;;;;;3.00;2.00;;;;;8.53;72.00;101309.41;5036805;28;45315;-49
2022/01/31 05:01:35;;;;;;;;;1.25;1.25;;;;;8.67;71.92;101346.94;5035954;28;45590;-53
2022/01/31 05:04:00;;;;;;;;;1.40;1.00;;;;;8.68;72.81;101354.09;5036870;28;46415;-50
2022/01/31 05:06:32;;;;;;;;;2.50;1.75;;;;;8.66;71.11;101356.16;5037166;28;45494;-49
2022/01/31 05:08:57;;;;;;;;;2.00;2.00;;;;;8.49;71.74;101340.88;5037020;28;45760;-53
2022/01/31 05:11:23;;;;;;;;;2.25;0.75;;;;;8.67;71.34;101351.53;5036981;28;45250;-53
2022/01/31 05:13:48;;;;;;;;;1.00;1.00;;;;;8.73;70.52;101347.19;5036461;28;46093;-51
2022/01/31 05:16:14;;;;;;;;;0.00;0.00;;;;;8.72;69.91;101371.00;5036881;28;45329;-50
2022/01/31 05:18:40;;;;;;;;;1.00;1.00;;;;;8.62;68.18;101364.91;5017649;28;45374;-54
2022/01/31 05:21:07;;;;;;;;;1.50;1.50;;;;;8.69;68.74;101387.78;5019147;28;45446;-53
2022/01/31 05:23:33;;;;;;;;;1.40;1.40;;;;;8.47;68.47;101326.53;5034816;28;45479;-52
2022/01/31 05:25:58;;;;;;;;;2.00;0.50;;;;;8.73;67.88;101366.34;5036651;28;45464;-51
2022/01/31 05:28:24;;;;;;;;;1.50;0.50;;;;;8.73;67.98;101378.16;5036808;28;45854;-48
2022/01/31 05:30:49;;;;;;;;;1.75;1.75;;;;;8.72;67.41;101386.56;5052057;28;45442;-54
2022/01/31 05:33:15;;;;;;;;;0.50;0.50;;;;;8.70;66.84;101386.72;5036638;28;45484;-55
2022/01/31 05:35:40;;;;;;;;;2.00;1.00;;;;;8.71;66.59;101388.47;5036598;28;45368;-54
2022/01/31 05:38:06;;;;;;;;;1.50;1.00;;;;;8.70;65.88;101394.94;5035370;28;45399;-50
2022/01/31 05:40:32;;;;;;;;;0.75;0.00;;;;;8.69;65.01;101390.50;5036570;28;45378;-50
2022/01/31 05:42:57;;;;;;;;;0.00;0.00;;;;;8.70;64.32;101388.63;5035524;28;45346;-50
2022/01/31 05:45:23;;;;;;;;;1.00;1.00;;;;;8.68;63.86;101397.03;5036424;28;45311;-52
2022/01/31 05:47:48;;;;;;;;;0.50;0.50;;;;;8.68;63.99;101391.56;5036240;28;45314;-52
2022/01/31 05:50:14;;;;;;;;;4.50;1.75;;;;;8.64;63.67;101382.03;5036410;28;45385;-52
2022/01/31 05:52:39;;;;;;;;;1.00;1.00;;;;;8.47;62.96;101345.66;5036239;28;45577;-50
2022/01/31 05:55:05;;;;;;;;;2.00;2.00;;;;;8.63;63.27;101388.50;5036032;28;45547;-50
2022/01/31 05:57:33;;;;;;;;;6.50;0.00;;;;;8.69;63.20;101398.72;5014961;28;45386;-53
2022/01/31 05:59:58;;;;;;;;;1.00;1.00;;;;;8.50;63.21;101362.56;5031257;28;45599;-56
2022/01/31 06:02:24;;;;;;;;;1.75;1.50;;;;;8.70;63.70;101385.91;5031243;28;47667;-52
2022/01/31 06:04:49;;;;;;;;;0.50;0.50;;;;;8.45;62.59;101345.88;5014637;28;45341;-52
2022/01/31 06:07:15;;;;;;;;;0.25;0.25;;;;;8.62;62.44;101367.66;5016507;28;45442;-50
2022/01/31 06:09:41;;;;;;;;;0.50;0.50;;;;;8.62;62.46;101384.94;5015325;28;45409;-53
2022/01/31 06:12:07;;;;;;;;;3.00;1.75;;;;;8.58;62.54;101391.78;5015998;28;45636;-51
2022/01/31 06:14:32;;;;;;;;;3.00;1.80;;;;;8.53;62.84;101386.00;5016248;28;45371;-52
2022/01/31 06:16:58;;;;;;;;;5.25;2.25;;;;;8.58;62.53;101385.50;4997909;28;45284;-51
2022/01/31 06:19:24;;;;;;;;;5.50;5.50;;;;;8.59;62.21;101378.97;5016297;28;45713;-54
2022/01/31 06:21:49;;;;;;;;;1.75;1.75;;;;;8.41;61.83;101378.22;5015500;28;45375;-53
2022/01/31 06:24:15;;;;;;;;;2.00;2.00;;;;;8.56;62.48;101409.44;5015998;28;45326;-50
2022/01/31 06:26:44;;;;;;;;;1.00;1.00;;;;;8.59;61.63;101398.97;5016236;28;45322;-56
2022/01/31 06:29:09;;;;;;;;;0.00;0.00;;;;;8.59;61.45;101388.03;5015771;28;45414;-52
2022/01/31 06:31:35;;;;;;;;;2.00;0.00;;;;;8.51;61.86;101371.66;5015781;28;46760;-51
2022/01/31 06:34:01;;;;;;;;;3.00;0.25;;;;;8.59;61.67;101388.03;5015806;28;45419;-52
2022/01/31 06:36:27;;;;;;;;;2.00;0.60;;;;;7.86;61.09;101278.97;5015483;28;45448;-53
2022/01/31 06:38:52;;;;;;;;;2.20;0.20;;;;;8.52;61.40;101390.66;5016030;28;45203;-51
2022/01/31 06:41:19;;;;;;;;;1.25;0.00;;;;;8.38;60.83;101372.25;5015405;28;45943;-52
2022/01/31 06:43:45;;;;;;;;;0.20;0.20;;;;;8.60;60.93;101403.41;5038474;28;45340;-52
2022/01/31 06:46:10;;;;;;;;;3.00;0.20;;;;;8.62;61.27;101390.41;5034102;28;45245;-52
2022/01/31 06:48:36;;;;;;;;;1.50;1.00;;;;;8.58;60.97;101389.06;5033992;28;45362;-51
2022/01/31 06:51:01;;;;;;;;;0.50;0.50;;;;;8.56;60.84;101404.81;5034998;28;46095;-49
2022/01/31 06:53:28;;;;;;;;;1.50;0.00;;;;;8.45;60.77;101400.59;5035064;28;45448;-54
2022/01/31 06:55:55;;;;;;;;;1.40;1.00;;;;;8.51;60.86;101396.28;5034306;28;45293;-51
2022/01/31 06:58:21;;;;;;;;;2.20;0.60;;;;;8.42;60.89;101395.47;5067778;28;45554;-54
2022/01/31 07:00:46;;;;;;;;;1.75;1.75;;;;;8.48;60.31;101396.66;5035114;28;46420;-53
2022/01/31 07:03:13;;;;;;;;;1.00;1.00;;;;;8.41;60.70;101394.63;5033875;28;45346;-55
2022/01/31 07:05:47;;;;;;;;;2.60;1.40;;;;;8.45;60.40;101403.34;5033569;28;45415;-56
2022/01/31 07:08:13;;;;;;;;;1.60;0.00;;;;;8.46;60.36;101423.31;5035794;28;45194;-53
2022/01/31 07:10:39;;;;;;;;;0.50;0.50;;;;;8.45;60.64;101425.22;5035069;28;46553;-53
2022/01/31 07:13:13;;;;;;;;;1.25;1.00;;;;;8.41;60.75;101434.81;5035062;28;45303;-56
2022/01/31 07:15:39;;;;;;;;;0.00;0.00;;;;;8.26;60.52;101391.81;5034633;28;45322;-53
2022/01/31 07:18:04;;;;;;;;;2.25;2.25;;;;;8.44;60.08;101426.25;5035378;28;45247;-51
2022/01/31 07:20:41;;;;;;;;;3.00;2.00;;;;;8.46;59.81;101423.31;5033042;28;46926;-51
2022/01/31 07:23:16;;;;;;;;;2.00;0.80;;;;;8.46;60.17;101437.00;5035110;28;45728;-53
2022/01/31 07:25:42;;;;;;;;;2.60;2.60;;;;;8.39;59.92;101437.72;5034869;28;45416;-53
2022/01/31 07:28:09;;;;;;;;;3.25;2.00;;;;;8.46;60.02;101442.47;5033764;28;45426;-50
2022/01/31 07:30:36;;;;;;;;;2.00;1.20;;;;;8.43;59.99;101440.94;5033269;28;47480;-53
2022/01/31 07:33:02;;;;;;;;;2.40;2.00;;;;;8.26;60.17;101413.69;5034818;28;45309;-53
2022/01/31 07:35:27;;;;;;;;;2.00;2.00;;;;;8.27;60.11;101418.13;5033837;28;45314;-55
2022/01/31 07:37:53;;;;;;;;;1.00;1.00;;;;;8.24;60.20;101415.78;5035175;28;45294;-49
2022/01/31 07:40:18;;;;;;;;;0.50;0.50;;;;;8.45;60.20;101444.38;5034649;28;45315;-52
2022/01/31 07:42:44;;;;;;;;;3.00;2.00;;;;;8.45;59.32;101447.09;5034438;28;45421;-56
2022/01/31 07:45:09;;;;;;;;;1.00;1.00;;;;;8.43;59.11;101453.78;5034838;28;45331;-53
2022/01/31 07:47:35;;;;;;;;;0.75;0.75;;;;;8.48;59.46;101451.38;5016403;28;45495;-51
2022/01/31 07:50:02;;;;;;;;;2.00;1.50;;;;;8.54;59.02;101467.09;5034319;28;45828;-56
2022/01/31 07:52:28;;;;;;;;;4.20;3.00;;;;;8.50;59.60;101472.00;5033129;28;45569;-54
2022/01/31 07:54:54;;;;;;;;;3.50;1.50;;;;;8.53;59.11;101466.22;5035064;28;45348;-52
2022/01/31 07:57:23;;;;;;;;;0.60;0.60;;;;;8.48;58.87;101454.94;5034792;28;45389;-53
2022/01/31 07:59:49;;;;;;;;;0.00;0.00;;;;;8.61;59.17;101479.00;5034139;28;46500;-54
2022/01/31 08:02:14;;;;;;;;;0.00;0.00;;;;;8.62;58.42;101474.38;5034378;28;45367;-53
2022/01/31 08:04:40;;;;;;;;;1.00;1.00;;;;;8.39;59.05;101453.28;5034284;28;45445;-54
2022/01/31 08:07:05;;;;;;;;;0.50;0.00;;;;;8.63;58.70;101487.03;5034033;28;45753;-55
2022/01/31 08:09:31;;;;;;;;;1.00;0.00;;;;;8.65;58.74;101495.91;5032822;28;46118;-52
2022/01/31 08:11:56;;;;;;;;;0.00;0.00;;;;;8.65;58.67;101484.97;5033425;28;45366;-53
2022/01/31 08:14:22;;;;;;;;;2.25;1.00;;;;;8.74;58.47;101492.09;5034566;28;45426;-51
2022/01/31 08:16:48;;;;;;;;;2.25;1.25;;;;;8.70;58.17;101490.72;5034597;28;45410;-55
2022/01/31 08:19:13;;;;;;;;;1.00;1.00;;;;;8.77;58.76;101499.94;5066809;28;47085;-55
2022/01/31 08:21:39;;;;;;;;;1.00;1.00;;;;;8.81;58.72;101505.91;5034740;28;45419;-51
2022/01/31 08:24:05;;;;;;;;;3.00;0.50;;;;;8.82;58.71;101502.97;5034659;28;45408;-51
2022/01/31 08:26:31;;;;;;;;;1.75;1.75;;;;;8.80;58.74;101506.91;5067089;28;45362;-53
2022/01/31 08:28:57;;;;;;;;;2.00;1.00;;;;;8.78;58.64;101503.53;5035071;28;46108;-54
2022/01/31 08:31:28;;;;;;;;;1.00;1.00;;;;;8.77;58.46;101494.47;5037917;28;45404;-49
2022/01/31 08:36:22;;;;;;;;;2.80;2.80;;;;;8.85;58.30;101484.50;5038076;28;45370;-55
2022/01/31 08:38:47;;;;;;;;;1.00;1.00;;;;;8.85;59.25;101495.44;5069938;28;45864;-51
2022/01/31 08:41:13;;;;;;;;;2.00;1.00;;;;;8.86;59.50;101495.25;5036144;28;45696;-51
2022/01/31 08:43:39;;;;;;;;;6.25;2.00;;;;;8.20;59.27;101376.13;5036582;28;45405;-51
2022/01/31 08:46:05;;;;;;;;;2.00;2.00;;;;;8.93;59.15;101487.16;5037670;28;45314;-53
2022/01/31 08:48:31;;;;;;;;;3.40;3.40;;;;;8.92;59.32;101489.03;5037332;28;47035;-50
2022/01/31 08:50:56;;;;;;;;;2.75;2.00;;;;;8.96;58.97;101503.22;5037019;28;45297;-51
2022/01/31 08:53:22;;;;;;;;;2.00;2.00;;;;;8.98;59.63;101524.94;5036037;28;45663;-55
2022/01/31 08:55:53;;;;;;;;;6.50;4.25;;;;;8.99;59.70;101523.91;5037472;28;45634;-51
2022/01/31 08:58:18;;;;;;;;;1.60;1.00;;;;;8.96;59.16;101538.81;5036896;28;45312;-50
2022/01/31 09:00:47;;;;;;;;;2.75;2.50;;;;;9.04;59.00;101527.81;5036967;28;45322;-51
2022/01/31 09:05:39;;;;;;;;;1.75;1.75;;;;;9.05;58.67;101520.44;5037562;28;45429;-51
2022/01/31 09:08:04;;;;;;;;;6.00;2.00;;;;;9.03;58.87;101520.63;5036577;28;46314;-52
2022/01/31 09:10:30;;;;;;;;;2.00;2.00;;;;;8.97;58.00;101507.69;5037344;28;45853;-56
2022/01/31 09:12:56;;;;;;;;;0.50;0.50;;;;;9.09;58.34;101516.31;5035999;28;45413;-54
2022/01/31 09:15:22;;;;;;;;;4.25;1.00;;;;;9.12;58.13;101491.28;5052444;28;45546;-53
2022/01/31 09:17:48;;;;;;;;;7.75;2.75;;;;;9.20;57.24;101507.69;5037019;28;46500;-52
2022/01/31 09:20:13;;;;;;;;;2.20;2.20;;;;;9.19;56.89;101499.63;5036710;28;45385;-52
2022/01/31 09:22:39;;;;;;;;;2.00;2.00;;;;;9.07;57.33;101483.63;5003766;28;45668;-53
2022/01/31 09:25:05;;;;;;;;;1.75;1.00;;;;;9.12;56.82;101494.03;5019594;28;45367;-52
2022/01/31 09:27:31;;;;;;;;;4.00;1.60;;;;;9.21;57.25;101519.47;5036766;28;46996;-53
2022/01/31 09:29:57;;;;;;;;;4.50;2.00;;;;;9.02;56.65;101483.31;5035347;28;45417;-53
2022/01/31 09:32:24;;;;;;;;;2.80;2.00;;;;;9.26;56.84;101499.72;5035361;28;45433;-52
2022/01/31 09:34:50;;;;;;;;;1.20;1.20;;;;;9.36;57.13;101514.88;5019184;28;45483;-52
2022/01/31 09:37:19;;;;;;;;;2.00;1.00;;;;;9.43;55.99;101512.25;5030764;28;45715;-52
2022/01/31 09:39:46;;;;;;;;;0.80;0.80;;;;;9.49;56.33;101519.75;5030953;28;45969;-51
2022/01/31 09:42:15;;;;;;;;;3.20;2.00;;;;;9.46;56.05;101503.66;5033448;28;45366;-51
2022/01/31 09:45:05;;;;;;;;;1.00;1.00;;;;;9.58;55.75;101520.53;5036742;28;45413;-55
2022/01/31 09:48:32;;;;;;;;;1.80;1.00;;;;;9.67;56.11;101510.31;5036394;28;45770;-55
2022/01/31 09:50:19;;;;;;;;;0.80;0.80;;;;;9.38;55.44;101494.69;5022235;28;45445;-52
2022/01/31 09:52:44;;;;;;;;;1.50;1.50;;;;;9.52;55.40;101524.00;5035250;28;45383;-53
2022/01/31 09:55:10;;;;;;;;;6.00;3.25;;;;;9.55;55.60;101501.69;5000185;27;45674;-53
2022/01/31 09:57:36;;;;;;;;;2.25;1.00;;;;;9.52;54.82;101517.66;5050860;28;46527;-53
2022/01/31 10:00:01;;;;;;;;;1.00;1.00;;;;;9.52;55.40;101525.88;5036053;28;45332;-52
2022/01/31 10:02:27;;;;;;;;;1.00;1.00;;;;;9.51;55.42;101532.41;5035177;28;45463;-53
2022/01/31 10:04:52;;;;;;;;;1.00;1.00;;;;;8.92;54.82;101438.94;5035520;28;45481;-55
2022/01/31 10:07:20;;;;;;;;;3.00;1.25;;;;;9.43;55.29;101516.88;5036103;28;45470;-51
2022/01/31 10:09:47;;;;;;;;;1.60;1.60;;;;;9.47;54.78;101559.31;5035359;28;45345;-55
2022/01/31 10:12:29;;;;;;;;;2.00;0.80;;;;;9.57;53.96;101542.63;5036540;28;45299;-50
2022/01/31 10:17:40;;;;;;;;;7.60;1.60;;;;;9.32;53.58;101509.94;5031689;28;45400;-51
2022/01/31 10:20:30;;;;;;;;;2.00;2.00;;;;;9.52;52.07;101550.53;5018712;28;45362;-56
2022/01/31 10:22:56;;;;;;;;;1.00;1.00;;;;;9.55;53.02;101531.84;5025760;28;45432;-60
2022/01/31 10:25:22;;;;;;;;;2.00;2.00;;;;;8.98;52.60;101418.16;5053554;28;45710;-59
2022/01/31 10:27:50;;;;;;;;;1.00;1.00;;;;;9.45;51.34;101501.94;5031243;28;45930;-58
2022/01/31 10:30:18;;;;;;;;;1.60;1.00;;;;;9.45;51.51;101487.41;5040309;28;45878;-57
2022/01/31 10:32:45;;;;;;;;;4.00;1.80;;;;;9.52;50.83;101529.47;5013839;28;45513;-52
2022/01/31 10:35:22;;;;;;;;;2.80;1.00;;;;;9.51;53.17;101546.97;5014117;28;45716;-63
2022/01/31 10:37:48;;;;;;;;;2.40;1.00;;;;;9.49;54.24;101562.72;4991232;28;47002;-56
2022/01/31 10:45:56;;;;;;;;;3.20;1.40;;;;;9.12;57.57;101578.94;5010833;28;45737;-58
2022/01/31 10:51:57;;;;;;;;;7.60;4.80;;;;;9.07;58.63;101582.22;5020259;28;45502;-53
2022/01/31 10:57:05;;;;;;;;;4.60;2.60;;;;;9.19;55.86;101573.59;5010711;28;45402;-52
2022/01/31 10:59:39;;;;;;;;;2.00;1.00;;;;;9.34;55.47;101562.69;5012766;28;48334;-57
2022/01/31 11:02:08;;;;;;;;;2.20;2.20;;;;;9.61;54.14;101576.84;5031330;28;45805;-54
2022/01/31 11:04:37;;;;;;;;;0.20;0.00;;;;;9.58;53.16;101574.47;5031247;28;45470;-56
2022/01/31 11:07:07;;;;;;;;;1.00;1.00;;;;;9.40;53.91;101566.56;5029699;28;45495;-55
2022/01/31 11:09:33;;;;;;;;;5.60;3.20;;;;;9.52;52.95;101589.78;5063107;28;47720;-54
2022/01/31 11:11:58;;;;;;;;;3.75;3.00;;;;;9.49;52.20;101579.16;5030759;28;45496;-57
2022/01/31 11:14:24;;;;;;;;;2.00;2.00;;;;;9.43;53.29;101571.69;5031281;28;45415;-58
2022/01/31 11:16:49;;;;;;;;;1.00;1.00;;;;;9.33;52.67;101570.06;5015906;28;45846;-53
2022/01/31 11:19:21;;;;;;;;;4.25;2.00;;;;;9.39;53.11;101586.78;5025791;28;45518;-58
2022/01/31 11:21:48;;;;;;;;;0.80;0.80;;;;;9.27;53.09;101565.31;5030796;28;45442;-59
2022/01/31 11:24:22;;;;;;;;;4.40;2.80;;;;;9.60;52.97;101572.38;5012994;28;45503;-60
2022/01/31 11:26:58;;;;;;;;;1.80;1.40;;;;;9.71;52.21;101577.44;5045838;28;45531;-59
2022/01/31 11:29:24;;;;;;;;;1.40;0.20;;;;;9.60;51.82;101581.47;5029671;28;46121;-56
2022/01/31 11:31:49;;;;;;;;;3.00;1.00;;;;;9.25;52.02;101541.88;5013562;28;46004;-58
2022/01/31 11:34:15;;;;;;;;;2.00;1.00;;;;;9.54;52.42;101595.91;5009435;28;45496;-57
2022/01/31 11:36:43;;;;;;;;;2.75;1.00;;;;;9.34;53.01;101552.56;4999323;28;45661;-60
2022/01/31 11:39:13;;;;;;;;;1.40;1.00;;;;;9.47;53.16;101565.66;4985008;28;50215;-55
2022/01/31 11:41:52;;;;;;;;;2.20;1.00;;;;;9.30;53.37;101533.94;5008657;28;45766;-56
2022/01/31 11:44:27;;;;;;;;;4.00;0.60;;;;;12.65;50.71;101574.56;4992241;28;45465;-60
2022/01/31 11:46:55;;;;;;;;;2.80;1.80;;;;;15.94;40.56;101560.09;4992480;28;45501;-58
2022/01/31 11:49:21;;;;;;;;;3.80;2.60;;;;;14.51;41.37;101570.34;4991291;28;48285;-56
2022/01/31 11:52:02;;;;;;;;;4.75;2.75;;;;;12.93;44.47;101557.91;5023432;28;45536;-56